sensor_id;sensor_type;location;lat;lon;timestamp;pressure;altitude;pressure_sealevel;temperature;humidity
62980;BME280;49075;53.988;27.678;2023-02-19T00:01:46;970;;;0.2;69.5
62980;BME280;49075;53.988;27.678;2023-02-19T00:07:08;970;;;0.1;69.1
62980;BME280;49075;53.988;27.678;2023-02-19T00:12:10;970;;;0.1;69.6
62980;BME280;49075;53.988;27.678;2023-02-19T00:16:19;970.1;;;0.1;69.3
62980;BME280;49075;53.988;27.678;2023-02-19T00:21:18;970.1;;;0.1;69.7
62980;BME280;49075;53.988;27.678;2023-02-19T00:26:18;970.2;;;0;69.6
62980;BME280;49075;53.988;27.678;2023-02-19T00:31:52;970.2;;;0.1;70
62980;BME280;49075;53.988;27.678;2023-02-19T00:37:08;970.2;;;0.1;69.9
62980;BME280;49075;53.988;27.678;2023-02-19T00:41:50;970.1;;;0.1;70.2
62980;BME280;49075;53.988;27.678;2023-02-19T00:46:32;970.2;;;0.1;70.3
62980;BME280;49075;53.988;27.678;2023-02-19T00:51:18;970.2;;;0;70.5
62980;BME280;49075;53.988;27.678;2023-02-19T00:56:52;970.2;;;0;70.5
62980;BME280;49075;53.988;27.678;2023-02-19T01:02:08;970.2;;;0;70.4
62980;BME280;49075;53.988;27.678;2023-02-19T01:06:32;970.2;;;-0.1;70.7
62980;BME280;49075;53.988;27.678;2023-02-19T01:11:30;970.2;;;-0.2;70.6
62980;BME280;49075;53.988;27.678;2023-02-19T01:16:46;970.3;;;-0.2;70.9
62980;BME280;49075;53.988;27.678;2023-02-19T01:21:50;970.3;;;-0.4;70.9
62980;BME280;49075;53.988;27.678;2023-02-19T01:27:08;970.3;;;-0.3;71.2
62980;BME280;49075;53.988;27.678;2023-02-19T01:31:30;970.4;;;-0.3;71
62980;BME280;49075;53.988;27.678;2023-02-19T01:36:18;970.4;;;-0.2;71.1
62980;BME280;49075;53.988;27.678;2023-02-19T01:41:19;970.4;;;-0.3;70.9
62980;BME280;49075;53.988;27.678;2023-02-19T01:46:54;970.4;;;-0.2;71
62980;BME280;49075;53.988;27.678;2023-02-19T01:52:08;970.4;;;-0.2;70.6
62980;BME280;49075;53.988;27.678;2023-02-19T01:56:18;970.4;;;-0.1;70.8
62980;BME280;49075;53.988;27.678;2023-02-19T02:01:30;970.3;;;-0.1;70.4
62980;BME280;49075;53.988;27.678;2023-02-19T02:06:30;970.4;;;-0.2;70.6
62980;BME280;49075;53.988;27.678;2023-02-19T02:11:51;970.4;;;-0.1;70.5
62980;BME280;49075;53.988;27.678;2023-02-19T02:17:08;970.4;;;-0.1;70.7
62980;BME280;49075;53.988;27.678;2023-02-19T02:21:50;970.4;;;-0.1;70.6
62980;BME280;49075;53.988;27.678;2023-02-19T02:27:05;970.5;;;-0.1;70.7
62980;BME280;49075;53.988;27.678;2023-02-19T02:31:44;970.5;;;-0.2;70.7
62980;BME280;49075;53.988;27.678;2023-02-19T02:37:08;970.5;;;-0.1;70.8
62980;BME280;49075;53.988;27.678;2023-02-19T02:42:10;970.6;;;-0.1;70.8
62980;BME280;49075;53.988;27.678;2023-02-19T02:47:02;970.5;;;-0.3;70.7
62980;BME280;49075;53.988;27.678;2023-02-19T02:51:32;970.5;;;-0.3;70.4
62980;BME280;49075;53.988;27.678;2023-02-19T02:56:42;970.6;;;-0.3;70.2
62980;BME280;49075;53.988;27.678;2023-02-19T03:02:08;970.6;;;-0.2;70.3
62980;BME280;49075;53.988;27.678;2023-02-19T03:06:52;970.6;;;-0.2;69.5
62980;BME280;49075;53.988;27.678;2023-02-19T03:11:54;970.6;;;-0.2;69.7
62980;BME280;49075;53.988;27.678;2023-02-19T03:16:33;970.6;;;-0.2;69.2
62980;BME280;49075;53.988;27.678;2023-02-19T03:21:44;970.7;;;-0.1;69.8
62980;BME280;49075;53.988;27.678;2023-02-19T03:27:08;970.8;;;-0.2;69.4
62980;BME280;49075;53.988;27.678;2023-02-19T03:31:51;970.8;;;-0.1;69.9
62980;BME280;49075;53.988;27.678;2023-02-19T03:37:09;970.8;;;-0.2;69.4
62980;BME280;49075;53.988;27.678;2023-02-19T03:41:52;970.8;;;-0.2;69.9
62980;BME280;49075;53.988;27.678;2023-02-19T03:46:19;970.8;;;-0.4;70.1
62980;BME280;49075;53.988;27.678;2023-02-19T03:52:09;970.9;;;-0.6;70.8
62980;BME280;49075;53.988;27.678;2023-02-19T03:56:51;971;;;-0.8;71.2
62980;BME280;49075;53.988;27.678;2023-02-19T04:02:06;971.1;;;-0.8;71.5
62980;BME280;49075;53.988;27.678;2023-02-19T04:06:40;971.1;;;-0.9;71.9
62980;BME280;49075;53.988;27.678;2023-02-19T04:11:30;971.2;;;-0.9;72.1
62980;BME280;49075;53.988;27.678;2023-02-19T04:17:10;971.2;;;-1;72.7
62980;BME280;49075;53.988;27.678;2023-02-19T04:21:54;971.1;;;-1.1;72.7
62980;BME280;49075;53.988;27.678;2023-02-19T04:26:54;971.1;;;-1.1;72.7
62980;BME280;49075;53.988;27.678;2023-02-19T04:31:18;971;;;-1.2;73
62980;BME280;49075;53.988;27.678;2023-02-19T04:36:18;971.1;;;-1.2;73.2
62980;BME280;49075;53.988;27.678;2023-02-19T04:42:09;971.1;;;-1.3;73.3
62980;BME280;49075;53.988;27.678;2023-02-19T04:46:38;971.1;;;-1.4;73.6
62980;BME280;49075;53.988;27.678;2023-02-19T04:52:10;971.1;;;-1.4;73.7
62980;BME280;49075;53.988;27.678;2023-02-19T04:56:52;971.2;;;-1.4;73.8
62980;BME280;49075;53.988;27.678;2023-02-19T05:02:00;971.2;;;-1.3;73.9
62980;BME280;49075;53.988;27.678;2023-02-19T05:07:08;971.2;;;-1.3;74.1
62980;BME280;49075;53.988;27.678;2023-02-19T05:11:18;971.3;;;-1.3;74.6
62980;BME280;49075;53.988;27.678;2023-02-19T05:17:06;971.3;;;-1.1;74.2
62980;BME280;49075;53.988;27.678;2023-02-19T05:21:18;971.3;;;-1.1;74.1
62980;BME280;49075;53.988;27.678;2023-02-19T05:26:18;971.3;;;-1.1;74.2
62980;BME280;49075;53.988;27.678;2023-02-19T05:32:08;971.2;;;-1.2;74.1
62980;BME280;49075;53.988;27.678;2023-02-19T05:36:52;971.2;;;-1.1;74
62980;BME280;49075;53.988;27.678;2023-02-19T05:41:56;971.2;;;-1.1;73.9
62980;BME280;49075;53.988;27.678;2023-02-19T05:46:30;971.2;;;-1;73.7
62980;BME280;49075;53.988;27.678;2023-02-19T05:51:48;971.2;;;-1;73.4
62980;BME280;49075;53.988;27.678;2023-02-19T05:56:54;971.3;;;-0.9;73.3
62980;BME280;49075;53.988;27.678;2023-02-19T06:01:50;971.4;;;-0.9;73
62980;BME280;49075;53.988;27.678;2023-02-19T06:07:08;971.4;;;-0.8;73
62980;BME280;49075;53.988;27.678;2023-02-19T06:11:32;971.4;;;-0.9;72.9
62980;BME280;49075;53.988;27.678;2023-02-19T06:16:46;971.4;;;-0.9;73.1
62980;BME280;49075;53.988;27.678;2023-02-19T06:22:06;971.4;;;-0.8;72.7
62980;BME280;49075;53.988;27.678;2023-02-19T06:26:54;971.4;;;-0.8;72.8
62980;BME280;49075;53.988;27.678;2023-02-19T06:32:08;971.4;;;-0.7;72.4
62980;BME280;49075;53.988;27.678;2023-02-19T06:36:18;971.4;;;-0.7;72.5
62980;BME280;49075;53.988;27.678;2023-02-19T06:41:30;971.4;;;-0.5;72
62980;BME280;49075;53.988;27.678;2023-02-19T06:47:06;971.4;;;-0.5;72.1
62980;BME280;49075;53.988;27.678;2023-02-19T06:52:08;971.4;;;-0.2;71.5
62980;BME280;49075;53.988;27.678;2023-02-19T06:57:08;971.5;;;0.1;71.3
62980;BME280;49075;53.988;27.678;2023-02-19T07:01:32;971.5;;;0.4;70.5
62980;BME280;49075;53.988;27.678;2023-02-19T07:06:46;971.4;;;1;69.7
62980;BME280;49075;53.988;27.678;2023-02-19T07:11:18;971.4;;;1.8;67.4
62980;BME280;49075;53.988;27.678;2023-02-19T07:16:52;971.4;;;2.4;66.5
62980;BME280;49075;53.988;27.678;2023-02-19T07:22:10;971.4;;;2.1;65.7
62980;BME280;49075;53.988;27.678;2023-02-19T07:26:30;971.4;;;2.7;65.6
62980;BME280;49075;53.988;27.678;2023-02-19T07:31:46;971.2;;;4;61.7
62980;BME280;49075;53.988;27.678;2023-02-19T07:36:38;971.2;;;4.4;61.4
62980;BME280;49075;53.988;27.678;2023-02-19T07:41:52;971.2;;;5.3;59.9
62980;BME280;49075;53.988;27.678;2023-02-19T07:47:06;971.2;;;7.2;57
62980;BME280;49075;53.988;27.678;2023-02-19T07:51:46;971.1;;;8.8;55.9
62980;BME280;49075;53.988;27.678;2023-02-19T07:56:46;971.2;;;10.6;53.3
62980;BME280;49075;53.988;27.678;2023-02-19T08:01:30;971.2;;;11.4;49.4
62980;BME280;49075;53.988;27.678;2023-02-19T08:06:46;971.2;;;11.5;46.3
62980;BME280;49075;53.988;27.678;2023-02-19T08:12:07;971.2;;;12;47.6
62980;BME280;49075;53.988;27.678;2023-02-19T08:16:48;971.2;;;11.5;42
62980;BME280;49075;53.988;27.678;2023-02-19T08:21:58;971.3;;;11.2;44.3
62980;BME280;49075;53.988;27.678;2023-02-19T08:26:46;971.3;;;10.6;41.5
62980;BME280;49075;53.988;27.678;2023-02-19T08:31:50;971.3;;;9.1;45.5
62980;BME280;49075;53.988;27.678;2023-02-19T08:36:54;971.4;;;7.8;44.4
62980;BME280;49075;53.988;27.678;2023-02-19T08:41:32;971.4;;;6.6;47.7
62980;BME280;49075;53.988;27.678;2023-02-19T08:46:58;971.4;;;7.2;45.4
62980;BME280;49075;53.988;27.678;2023-02-19T08:51:38;971.5;;;7.6;45.5
62980;BME280;49075;53.988;27.678;2023-02-19T08:56:52;971.5;;;6.7;46.5
62980;BME280;49075;53.988;27.678;2023-02-19T09:02:07;971.6;;;5.8;46.4
62980;BME280;49075;53.988;27.678;2023-02-19T09:06:46;971.6;;;7.1;45.2
62980;BME280;49075;53.988;27.678;2023-02-19T09:11:46;971.5;;;9.2;39.5
62980;BME280;49075;53.988;27.678;2023-02-19T09:16:18;971.5;;;9.2;40.8
62980;BME280;49075;53.988;27.678;2023-02-19T09:21:24;971.5;;;9.2;40.1
62980;BME280;49075;53.988;27.678;2023-02-19T09:27:06;971.5;;;10;40.9
62980;BME280;49075;53.988;27.678;2023-02-19T09:31:18;971.5;;;10.8;37.8
62980;BME280;49075;53.988;27.678;2023-02-19T09:36:47;971.5;;;8.9;39.7
62980;BME280;49075;53.988;27.678;2023-02-19T09:41:30;971.5;;;9.6;38.7
62980;BME280;49075;53.988;27.678;2023-02-19T09:46:54;971.5;;;11.4;38.2
62980;BME280;49075;53.988;27.678;2023-02-19T09:52:11;971.6;;;11.9;35.2
62980;BME280;49075;53.988;27.678;2023-02-19T09:56:52;971.5;;;13.1;35.5
62980;BME280;49075;53.988;27.678;2023-02-19T10:01:46;971.6;;;13.7;31.9
62980;BME280;49075;53.988;27.678;2023-02-19T10:06:19;971.6;;;13.7;34.1
62980;BME280;49075;53.988;27.678;2023-02-19T10:11:54;971.6;;;14.4;31.2
62980;BME280;49075;53.988;27.678;2023-02-19T10:17:12;971.6;;;14.7;32.3
62980;BME280;49075;53.988;27.678;2023-02-19T10:22:10;971.7;;;12.4;32
62980;BME280;49075;53.988;27.678;2023-02-19T10:26:32;971.6;;;12.9;33.2
62980;BME280;49075;53.988;27.678;2023-02-19T10:31:19;971.6;;;14.5;30.8
62980;BME280;49075;53.988;27.678;2023-02-19T10:36:54;971.5;;;15.2;31
62980;BME280;49075;53.988;27.678;2023-02-19T10:42:16;971.5;;;15.8;29.1
62980;BME280;49075;53.988;27.678;2023-02-19T10:46:19;971.5;;;15.9;29.7
62980;BME280;49075;53.988;27.678;2023-02-19T10:51:33;971.6;;;15.9;26.8
62980;BME280;49075;53.988;27.678;2023-02-19T10:56:32;971.6;;;16.1;29
62980;BME280;49075;53.988;27.678;2023-02-19T11:01:52;971.5;;;16.3;27.7
62980;BME280;49075;53.988;27.678;2023-02-19T11:07:10;971.5;;;17;28.5
62980;BME280;49075;53.988;27.678;2023-02-19T11:11:27;971.5;;;17.1;26.2
62980;BME280;49075;53.988;27.678;2023-02-19T11:17:19;971.5;;;17.6;27.3
62980;BME280;49075;53.988;27.678;2023-02-19T11:21:32;971.5;;;17.4;25.3
62980;BME280;49075;53.988;27.678;2023-02-19T11:26:54;971.6;;;17;26.9
62980;BME280;49075;53.988;27.678;2023-02-19T11:32:19;971.5;;;17.1;26
62980;BME280;49075;53.988;27.678;2023-02-19T11:36:31;971.4;;;16.3;27.1
62980;BME280;49075;53.988;27.678;2023-02-19T11:41:20;971.4;;;14.9;27.2
62980;BME280;49075;53.988;27.678;2023-02-19T11:46:19;971.5;;;13.3;30.3
62980;BME280;49075;53.988;27.678;2023-02-19T11:51:57;971.5;;;13.1;29.2
62980;BME280;49075;53.988;27.678;2023-02-19T11:57:08;971.4;;;14.3;28.8
62980;BME280;49075;53.988;27.678;2023-02-19T12:01:28;971.5;;;14.8;27.1
62980;BME280;49075;53.988;27.678;2023-02-19T12:06:33;971.4;;;13.5;27.8
62980;BME280;49075;53.988;27.678;2023-02-19T12:11:25;971.5;;;11.3;29.2
62980;BME280;49075;53.988;27.678;2023-02-19T12:16:53;971.6;;;8.8;32.1
62980;BME280;49075;53.988;27.678;2023-02-19T12:22:13;971.7;;;7.3;34.1
62980;BME280;49075;53.988;27.678;2023-02-19T12:26:33;971.8;;;6.3;35.7
62980;BME280;49075;53.988;27.678;2023-02-19T12:32:05;971.9;;;5.5;37
62980;BME280;49075;53.988;27.678;2023-02-19T12:36:19;971.9;;;4.7;38.6
62980;BME280;49075;53.988;27.678;2023-02-19T12:41:55;971.8;;;4.1;40.8
62980;BME280;49075;53.988;27.678;2023-02-19T12:47:12;971.8;;;3.6;42.5
62980;BME280;49075;53.988;27.678;2023-02-19T12:51:47;971.8;;;3.6;43.1
62980;BME280;49075;53.988;27.678;2023-02-19T12:56:45;971.8;;;3.4;43.8
62980;BME280;49075;53.988;27.678;2023-02-19T13:01:18;971.8;;;3.3;43.9
62980;BME280;49075;53.988;27.678;2023-02-19T13:06:53;971.9;;;3.2;44
62980;BME280;49075;53.988;27.678;2023-02-19T13:12:10;971.9;;;3.2;42
62980;BME280;49075;53.988;27.678;2023-02-19T13:16:55;972;;;3.1;41.1
62980;BME280;49075;53.988;27.678;2023-02-19T13:21:46;972.3;;;3;41.3
62980;BME280;49075;53.988;27.678;2023-02-19T13:26:49;972.5;;;2;44
62980;BME280;49075;53.988;27.678;2023-02-19T13:31:55;972.7;;;0.9;50.9
62980;BME280;49075;53.988;27.678;2023-02-19T13:37:10;972.7;;;0.2;54.7
62980;BME280;49075;53.988;27.678;2023-02-19T13:41:48;972.6;;;-0.2;55.9
62980;BME280;49075;53.988;27.678;2023-02-19T13:46:45;972.3;;;0.1;56.5
62980;BME280;49075;53.988;27.678;2023-02-19T13:51:42;972.2;;;0.5;54.6
62980;BME280;49075;53.988;27.678;2023-02-19T13:57:18;972.2;;;0.7;54.7
62980;BME280;49075;53.988;27.678;2023-02-19T14:07:18;972.2;;;0.8;55.3
62980;BME280;49075;53.988;27.678;2023-02-19T14:12:01;972.3;;;0.8;54.8
62980;BME280;49075;53.988;27.678;2023-02-19T14:16:49;972.3;;;0.8;55.1
62980;BME280;49075;53.988;27.678;2023-02-19T14:21:54;972.3;;;1;55
62980;BME280;49075;53.988;27.678;2023-02-19T14:27:10;972.3;;;1.4;55.1
62980;BME280;49075;53.988;27.678;2023-02-19T14:31:46;972.3;;;1.6;53.8
62980;BME280;49075;53.988;27.678;2023-02-19T14:36:34;972.6;;;1.5;52.5
62980;BME280;49075;53.988;27.678;2023-02-19T14:41:18;972.9;;;0.7;54
62980;BME280;49075;53.988;27.678;2023-02-19T14:46:56;972.8;;;0.2;57.5
62980;BME280;49075;53.988;27.678;2023-02-19T14:52:10;972.6;;;-0.3;59.4
62980;BME280;49075;53.988;27.678;2023-02-19T14:56:19;972.7;;;-0.1;57.5
62980;BME280;49075;53.988;27.678;2023-02-19T15:02:13;972.7;;;-0.1;57.6
62980;BME280;49075;53.988;27.678;2023-02-19T15:06:32;972.7;;;-0.1;56.6
62980;BME280;49075;53.988;27.678;2023-02-19T15:11:40;972.7;;;-0.4;57
62980;BME280;49075;53.988;27.678;2023-02-19T15:17:11;972.7;;;-0.5;56.5
62980;BME280;49075;53.988;27.678;2023-02-19T15:21:46;972.7;;;-0.7;56.8
62980;BME280;49075;53.988;27.678;2023-02-19T15:26:46;972.7;;;-0.7;56.3
62980;BME280;49075;53.988;27.678;2023-02-19T15:31:18;972.7;;;-0.6;56.1
62980;BME280;49075;53.988;27.678;2023-02-19T15:36:46;972.7;;;-0.7;55.8
62980;BME280;49075;53.988;27.678;2023-02-19T15:41:55;972.7;;;-0.8;55.6
62980;BME280;49075;53.988;27.678;2023-02-19T15:46:32;972.8;;;-0.8;55.4
62980;BME280;49075;53.988;27.678;2023-02-19T15:52:10;972.9;;;-0.7;55.5
62980;BME280;49075;53.988;27.678;2023-02-19T15:56:32;972.9;;;-0.7;54.9
62980;BME280;49075;53.988;27.678;2023-02-19T16:01:44;972.9;;;-0.8;55.2
62980;BME280;49075;53.988;27.678;2023-02-19T16:06:57;972.9;;;-0.9;55.5
62980;BME280;49075;53.988;27.678;2023-02-19T16:11:48;973;;;-0.8;55.3
62980;BME280;49075;53.988;27.678;2023-02-19T16:17:11;972.9;;;-1;55.5
62980;BME280;49075;53.988;27.678;2023-02-19T16:21:54;972.9;;;-1;55.5
62980;BME280;49075;53.988;27.678;2023-02-19T16:27:00;973;;;-1;55.4
62980;BME280;49075;53.988;27.678;2023-02-19T16:31:53;973;;;-1;55.4
62980;BME280;49075;53.988;27.678;2023-02-19T16:36:46;973.1;;;-1;55.4
62980;BME280;49075;53.988;27.678;2023-02-19T16:42:11;973.1;;;-0.9;55.3
62980;BME280;49075;53.988;27.678;2023-02-19T16:46:18;973.2;;;-1;55.4
62980;BME280;49075;53.988;27.678;2023-02-19T16:51:46;973.2;;;-1.2;55.8
62980;BME280;49075;53.988;27.678;2023-02-19T16:56:52;973.2;;;-1.2;56.1
62980;BME280;49075;53.988;27.678;2023-02-19T17:07:07;973.1;;;-1.1;56
62980;BME280;49075;53.988;27.678;2023-02-19T17:11:18;973.2;;;-1;56.1
62980;BME280;49075;53.988;27.678;2023-02-19T17:16:46;973.2;;;-1;56.2
62980;BME280;49075;53.988;27.678;2023-02-19T17:21:52;973.1;;;-0.9;56.3
62980;BME280;49075;53.988;27.678;2023-02-19T17:26:30;973.2;;;-1;56.6
62980;BME280;49075;53.988;27.678;2023-02-19T17:32:08;973.3;;;-0.9;56.6
62980;BME280;49075;53.988;27.678;2023-02-19T17:36:32;973.4;;;-0.9;56.7
62980;BME280;49075;53.988;27.678;2023-02-19T17:41:30;973.4;;;-0.9;56.7
62980;BME280;49075;53.988;27.678;2023-02-19T17:46:52;973.5;;;-0.9;56.7
62980;BME280;49075;53.988;27.678;2023-02-19T17:51:46;973.5;;;-1;56.9
62980;BME280;49075;53.988;27.678;2023-02-19T17:57:10;973.4;;;-0.9;56.5
62980;BME280;49075;53.988;27.678;2023-02-19T18:01:18;973.4;;;-0.8;56.4
62980;BME280;49075;53.988;27.678;2023-02-19T18:06:46;973.4;;;-0.7;56.2
62980;BME280;49075;53.988;27.678;2023-02-19T18:11:52;973.4;;;-0.8;56
62980;BME280;49075;53.988;27.678;2023-02-19T18:16:32;973.4;;;-0.8;56
62980;BME280;49075;53.988;27.678;2023-02-19T18:22:08;973.4;;;-0.8;55.8
62980;BME280;49075;53.988;27.678;2023-02-19T18:26:18;973.4;;;-0.7;55.7
62980;BME280;49075;53.988;27.678;2023-02-19T18:31:18;973.4;;;-0.8;55.5
62980;BME280;49075;53.988;27.678;2023-02-19T18:36:54;973.4;;;-0.8;55.5
62980;BME280;49075;53.988;27.678;2023-02-19T18:41:46;973.4;;;-0.9;55.1
62980;BME280;49075;53.988;27.678;2023-02-19T18:47:10;973.5;;;-0.9;55.3
62980;BME280;49075;53.988;27.678;2023-02-19T18:51:19;973.5;;;-1;55.3
62980;BME280;49075;53.988;27.678;2023-02-19T18:56:18;973.5;;;-1;55.4
62980;BME280;49075;53.988;27.678;2023-02-19T19:01:50;973.6;;;-1.1;55.3
62980;BME280;49075;53.988;27.678;2023-02-19T19:06:18;973.6;;;-1.1;55.3
62980;BME280;49075;53.988;27.678;2023-02-19T19:12:10;973.7;;;-0.8;54.9
62980;BME280;49075;53.988;27.678;2023-02-19T19:16:38;973.6;;;-0.9;54.8
62980;BME280;49075;53.988;27.678;2023-02-19T19:22:00;973.7;;;-1;55.2
62980;BME280;49075;53.988;27.678;2023-02-19T19:26:54;973.8;;;-1;55.1
62980;BME280;49075;53.988;27.678;2023-02-19T19:31:58;973.8;;;-1.1;55.4
62980;BME280;49075;53.988;27.678;2023-02-19T19:37:10;973.8;;;-1.1;55.2
62980;BME280;49075;53.988;27.678;2023-02-19T19:41:18;973.8;;;-1.1;55.7
62980;BME280;49075;53.988;27.678;2023-02-19T19:46:46;973.8;;;-1.2;55.8
62980;BME280;49075;53.988;27.678;2023-02-19T19:52:10;973.9;;;-1.2;56
62980;BME280;49075;53.988;27.678;2023-02-19T19:56:18;973.9;;;-1.3;56.2
62980;BME280;49075;53.988;27.678;2023-02-19T20:06:30;973.9;;;-1.2;56.2
62980;BME280;49075;53.988;27.678;2023-02-19T20:12:00;974;;;-1.2;56.2
62980;BME280;49075;53.988;27.678;2023-02-19T20:17:10;974.1;;;-1.3;56.3
62980;BME280;49075;53.988;27.678;2023-02-19T20:21:46;974;;;-1.3;56.5
62980;BME280;49075;53.988;27.678;2023-02-19T20:27:01;974.1;;;-1.3;56.7
62980;BME280;49075;53.988;27.678;2023-02-19T20:31:30;974.2;;;-1.2;56.5
62980;BME280;49075;53.988;27.678;2023-02-19T20:36:58;974.2;;;-1.3;56.8
62980;BME280;49075;53.988;27.678;2023-02-19T20:42:08;974.3;;;-1.3;56.9
62980;BME280;49075;53.988;27.678;2023-02-19T20:46:18;974.3;;;-1.3;56.9
62980;BME280;49075;53.988;27.678;2023-02-19T21:11:44;974.3;;;-1.3;56.9
62980;BME280;49075;53.988;27.678;2023-02-19T21:17:10;974.4;;;-1.1;56.8
62980;BME280;49075;53.988;27.678;2023-02-19T23:07:00;975;;;-1.8;57.4
62980;BME280;49075;53.988;27.678;2023-02-19T23:12:09;975;;;-1.8;57.3
62980;BME280;49075;53.988;27.678;2023-02-19T23:16:46;975;;;-1.9;57.3
62980;BME280;49075;53.988;27.678;2023-02-19T23:22:00;975;;;-1.8;57.2
62980;BME280;49075;53.988;27.678;2023-02-19T23:26:28;975;;;-1.8;57.2
